sensor_id;sensor_type;location;lat;lon;timestamp;temperature;humidity
27870;DHT22;15225;50.730;4.244;2023-03-14T17:50:30;5.50;1.00
27870;DHT22;15225;50.730;4.244;2023-03-14T17:52:55;5.30;1.00
27870;DHT22;15225;50.730;4.244;2023-03-14T17:55:21;5.50;1.00
27870;DHT22;15225;50.730;4.244;2023-03-14T17:57:47;6.00;1.00
27870;DHT22;15225;50.730;4.244;2023-03-14T18:00:13;6.40;99.90
27870;DHT22;15225;50.730;4.244;2023-03-14T18:02:39;6.80;99.90
27870;DHT22;15225;50.730;4.244;2023-03-14T18:05:06;6.90;99.90
27870;DHT22;15225;50.730;4.244;2023-03-14T18:07:36;7.10;1.00
27870;DHT22;15225;50.730;4.244;2023-03-14T18:10:03;7.50;99.90
27870;DHT22;15225;50.730;4.244;2023-03-14T18:12:29;7.50;99.90
27870;DHT22;15225;50.730;4.244;2023-03-14T18:14:55;7.50;99.90
27870;DHT22;15225;50.730;4.244;2023-03-14T18:17:20;7.60;1.00
27870;DHT22;15225;50.730;4.244;2023-03-14T18:19:46;7.60;99.90
27870;DHT22;15225;50.730;4.244;2023-03-14T18:22:12;7.60;99.90
27870;DHT22;15225;50.730;4.244;2023-03-14T18:24:37;7.60;99.90
27870;DHT22;15225;50.730;4.244;2023-03-14T18:27:04;7.50;99.90
27870;DHT22;15225;50.730;4.244;2023-03-14T18:29:29;7.50;99.90
27870;DHT22;15225;50.730;4.244;2023-03-14T18:31:55;7.40;99.90
27870;DHT22;15225;50.730;4.244;2023-03-14T18:34:23;7.50;99.90
27870;DHT22;15225;50.730;4.244;2023-03-14T18:36:49;7.50;99.90
27870;DHT22;15225;50.730;4.244;2023-03-14T18:39:15;7.60;99.90
27870;DHT22;15225;50.730;4.244;2023-03-14T18:41:41;7.50;99.90
27870;DHT22;15225;50.730;4.244;2023-03-14T18:44:07;7.40;99.90
27870;DHT22;15225;50.730;4.244;2023-03-14T18:46:33;7.60;99.90
27870;DHT22;15225;50.730;4.244;2023-03-14T18:48:58;7.60;99.90
27870;DHT22;15225;50.730;4.244;2023-03-14T18:51:29;7.60;99.90
27870;DHT22;15225;50.730;4.244;2023-03-14T18:53:56;7.60;99.90
27870;DHT22;15225;50.730;4.244;2023-03-14T18:56:26;7.50;99.90
27870;DHT22;15225;50.730;4.244;2023-03-14T18:58:56;7.50;99.90
27870;DHT22;15225;50.730;4.244;2023-03-14T19:01:21;7.50;1.00
27870;DHT22;15225;50.730;4.244;2023-03-14T19:03:52;7.50;1.00
27870;DHT22;15225;50.730;4.244;2023-03-14T19:06:18;7.50;1.00
27870;DHT22;15225;50.730;4.244;2023-03-14T19:08:45;7.30;1.00
27870;DHT22;15225;50.730;4.244;2023-03-14T19:11:13;7.40;1.00
27870;DHT22;15225;50.730;4.244;2023-03-14T19:13:39;7.40;1.00
27870;DHT22;15225;50.730;4.244;2023-03-14T19:16:07;7.30;95.80
27870;DHT22;15225;50.730;4.244;2023-03-14T19:18:36;7.40;23.10
27870;DHT22;15225;50.730;4.244;2023-03-14T19:21:12;7.30;21.30
27870;DHT22;15225;50.730;4.244;2023-03-14T19:23:41;7.20;99.90
27870;DHT22;15225;50.730;4.244;2023-03-14T19:26:07;7.20;95.50
27870;DHT22;15225;50.730;4.244;2023-03-14T19:28:34;7.20;99.90
27870;DHT22;15225;50.730;4.244;2023-03-14T19:31:04;7.30;88.30
27870;DHT22;15225;50.730;4.244;2023-03-14T19:33:31;7.20;99.90
27870;DHT22;15225;50.730;4.244;2023-03-14T19:35:57;7.20;99.90
27870;DHT22;15225;50.730;4.244;2023-03-14T19:38:23;7.20;99.90
27870;DHT22;15225;50.730;4.244;2023-03-14T19:40:49;7.20;99.90
27870;DHT22;15225;50.730;4.244;2023-03-14T19:43:16;7.10;99.90
27870;DHT22;15225;50.730;4.244;2023-03-14T19:45:42;7.10;99.90
27870;DHT22;15225;50.730;4.244;2023-03-14T19:48:09;7.10;99.90
27870;DHT22;15225;50.730;4.244;2023-03-14T19:50:36;7.00;99.90
27870;DHT22;15225;50.730;4.244;2023-03-14T19:53:01;7.00;99.90
27870;DHT22;15225;50.730;4.244;2023-03-14T19:55:28;6.90;99.90
27870;DHT22;15225;50.730;4.244;2023-03-14T19:57:53;6.90;99.90
27870;DHT22;15225;50.730;4.244;2023-03-14T20:00:20;6.90;99.90
27870;DHT22;15225;50.730;4.244;2023-03-14T20:02:48;6.90;99.90
27870;DHT22;15225;50.730;4.244;2023-03-14T20:05:16;6.90;99.90
27870;DHT22;15225;50.730;4.244;2023-03-14T20:07:43;6.90;99.90
27870;DHT22;15225;50.730;4.244;2023-03-14T20:10:12;6.90;99.90
27870;DHT22;15225;50.730;4.244;2023-03-14T20:12:41;6.90;99.90
27870;DHT22;15225;50.730;4.244;2023-03-14T20:15:09;6.90;99.90
27870;DHT22;15225;50.730;4.244;2023-03-14T20:17:37;6.90;99.90
27870;DHT22;15225;50.730;4.244;2023-03-14T20:20:05;6.80;99.90
27870;DHT22;15225;50.730;4.244;2023-03-14T20:22:34;6.80;99.90
27870;DHT22;15225;50.730;4.244;2023-03-14T20:25:02;6.80;99.90
27870;DHT22;15225;50.730;4.244;2023-03-14T20:27:30;6.80;99.90
27870;DHT22;15225;50.730;4.244;2023-03-14T20:29:57;6.80;99.90
27870;DHT22;15225;50.730;4.244;2023-03-14T20:32:23;6.80;99.90
27870;DHT22;15225;50.730;4.244;2023-03-14T20:34:48;6.80;99.90
27870;DHT22;15225;50.730;4.244;2023-03-14T20:37:14;6.90;99.90
27870;DHT22;15225;50.730;4.244;2023-03-14T20:39:46;6.90;99.90
27870;DHT22;15225;50.730;4.244;2023-03-14T20:42:19;7.00;99.90
27870;DHT22;15225;50.730;4.244;2023-03-14T20:44:47;7.10;99.90
27870;DHT22;15225;50.730;4.244;2023-03-14T20:47:12;6.50;99.90
27870;DHT22;15225;50.730;4.244;2023-03-14T20:49:40;6.40;1.00
27870;DHT22;15225;50.730;4.244;2023-03-14T20:52:05;6.40;1.00
27870;DHT22;15225;50.730;4.244;2023-03-14T20:54:31;6.60;99.90
27870;DHT22;15225;50.730;4.244;2023-03-14T20:56:57;6.60;99.90
27870;DHT22;15225;50.730;4.244;2023-03-14T20:59:25;6.60;99.90
27870;DHT22;15225;50.730;4.244;2023-03-14T21:04:37;6.50;99.90
27870;DHT22;15225;50.730;4.244;2023-03-14T21:07:03;6.40;99.90
27870;DHT22;15225;50.730;4.244;2023-03-14T21:09:35;6.30;99.90
27870;DHT22;15225;50.730;4.244;2023-03-14T21:12:09;6.30;99.90
27870;DHT22;15225;50.730;4.244;2023-03-14T21:14:34;6.20;99.90
27870;DHT22;15225;50.730;4.244;2023-03-14T21:17:03;6.20;99.90
27870;DHT22;15225;50.730;4.244;2023-03-14T21:19:39;6.20;99.90
27870;DHT22;15225;50.730;4.244;2023-03-14T21:22:11;6.10;99.90
27870;DHT22;15225;50.730;4.244;2023-03-14T21:24:43;6.00;99.90
27870;DHT22;15225;50.730;4.244;2023-03-14T21:27:10;5.90;99.90
27870;DHT22;15225;50.730;4.244;2023-03-14T21:29:37;5.90;1.00
27870;DHT22;15225;50.730;4.244;2023-03-14T21:32:04;6.00;1.00
27870;DHT22;15225;50.730;4.244;2023-03-14T21:34:30;6.00;1.00
27870;DHT22;15225;50.730;4.244;2023-03-14T21:36:56;6.10;1.00
27870;DHT22;15225;50.730;4.244;2023-03-14T21:39:22;6.10;1.00
27870;DHT22;15225;50.730;4.244;2023-03-14T21:41:48;6.10;1.00
27870;DHT22;15225;50.730;4.244;2023-03-14T21:44:15;6.10;1.00
27870;DHT22;15225;50.730;4.244;2023-03-14T21:46:43;6.10;1.00
27870;DHT22;15225;50.730;4.244;2023-03-14T21:49:14;6.00;1.00
27870;DHT22;15225;50.730;4.244;2023-03-14T21:51:43;6.00;1.00
27870;DHT22;15225;50.730;4.244;2023-03-14T21:54:15;6.00;1.00
27870;DHT22;15225;50.730;4.244;2023-03-14T21:56:42;6.00;1.00
27870;DHT22;15225;50.730;4.244;2023-03-14T21:59:09;5.90;1.00
27870;DHT22;15225;50.730;4.244;2023-03-14T22:01:35;6.10;1.00
27870;DHT22;15225;50.730;4.244;2023-03-14T22:04:00;6.10;1.00
27870;DHT22;15225;50.730;4.244;2023-03-14T22:06:27;6.10;1.00
27870;DHT22;15225;50.730;4.244;2023-03-14T22:08:53;6.10;1.00
27870;DHT22;15225;50.730;4.244;2023-03-14T22:11:23;6.10;1.00
27870;DHT22;15225;50.730;4.244;2023-03-14T22:13:49;6.20;1.00
27870;DHT22;15225;50.730;4.244;2023-03-14T22:16:15;6.10;1.00
27870;DHT22;15225;50.730;4.244;2023-03-14T22:18:42;6.20;1.00
27870;DHT22;15225;50.730;4.244;2023-03-14T22:21:08;6.20;1.00
27870;DHT22;15225;50.730;4.244;2023-03-14T22:23:34;6.20;99.90
27870;DHT22;15225;50.730;4.244;2023-03-14T22:25:59;6.20;99.90
27870;DHT22;15225;50.730;4.244;2023-03-14T22:28:25;6.20;99.90
27870;DHT22;15225;50.730;4.244;2023-03-14T22:30:51;6.30;99.90
27870;DHT22;15225;50.730;4.244;2023-03-14T22:33:18;6.40;99.90
27870;DHT22;15225;50.730;4.244;2023-03-14T22:35:48;6.30;99.90
27870;DHT22;15225;50.730;4.244;2023-03-14T22:38:15;6.20;99.90
27870;DHT22;15225;50.730;4.244;2023-03-14T22:40:42;6.30;99.90
27870;DHT22;15225;50.730;4.244;2023-03-14T22:43:08;6.50;99.90
27870;DHT22;15225;50.730;4.244;2023-03-14T22:45:36;6.40;99.90
27870;DHT22;15225;50.730;4.244;2023-03-14T22:48:04;6.40;99.90
